sensor_id;sensor_type;location;lat;lon;timestamp;temperature;humidity
22364;DHT22;11349;53.412;-1.328;2022-09-12T00:01:51;19.80;99.90
22364;DHT22;11349;53.412;-1.328;2022-09-12T00:04:17;19.60;99.90
22364;DHT22;11349;53.412;-1.328;2022-09-12T00:06:43;19.80;99.90
22364;DHT22;11349;53.412;-1.328;2022-09-12T00:09:11;19.80;99.90
22364;DHT22;11349;53.412;-1.328;2022-09-12T00:11:39;19.60;99.90
22364;DHT22;11349;53.412;-1.328;2022-09-12T00:14:07;19.70;99.90
22364;DHT22;11349;53.412;-1.328;2022-09-12T00:16:34;19.80;99.90
22364;DHT22;11349;53.412;-1.328;2022-09-12T00:19:00;19.80;99.90
22364;DHT22;11349;53.412;-1.328;2022-09-12T00:21:27;19.80;99.90
22364;DHT22;11349;53.412;-1.328;2022-09-12T00:23:56;19.80;99.90
22364;DHT22;11349;53.412;-1.328;2022-09-12T00:26:28;19.80;99.90
22364;DHT22;11349;53.412;-1.328;2022-09-12T00:28:54;19.80;99.90
22364;DHT22;11349;53.412;-1.328;2022-09-12T00:31:23;19.80;99.90
22364;DHT22;11349;53.412;-1.328;2022-09-12T00:33:53;19.80;99.90
22364;DHT22;11349;53.412;-1.328;2022-09-12T00:36:21;19.80;99.90
22364;DHT22;11349;53.412;-1.328;2022-09-12T00:38:48;19.80;99.90
22364;DHT22;11349;53.412;-1.328;2022-09-12T00:41:20;19.80;99.90
22364;DHT22;11349;53.412;-1.328;2022-09-12T00:43:52;19.80;99.90
22364;DHT22;11349;53.412;-1.328;2022-09-12T00:46:41;19.80;99.90
22364;DHT22;11349;53.412;-1.328;2022-09-12T00:51:36;19.70;99.90
22364;DHT22;11349;53.412;-1.328;2022-09-12T00:54:07;19.70;99.90
22364;DHT22;11349;53.412;-1.328;2022-09-12T00:56:36;19.60;99.90
22364;DHT22;11349;53.412;-1.328;2022-09-12T00:59:17;19.60;99.90
22364;DHT22;11349;53.412;-1.328;2022-09-12T01:01:44;19.70;99.90
22364;DHT22;11349;53.412;-1.328;2022-09-12T01:04:12;19.50;99.90
22364;DHT22;11349;53.412;-1.328;2022-09-12T01:06:41;19.60;99.90
22364;DHT22;11349;53.412;-1.328;2022-09-12T01:09:08;19.50;99.90
22364;DHT22;11349;53.412;-1.328;2022-09-12T01:11:36;19.50;99.90
22364;DHT22;11349;53.412;-1.328;2022-09-12T01:14:03;19.30;99.90
22364;DHT22;11349;53.412;-1.328;2022-09-12T01:16:29;19.50;99.90
22364;DHT22;11349;53.412;-1.328;2022-09-12T01:27:34;19.50;99.90
22364;DHT22;11349;53.412;-1.328;2022-09-12T01:30:31;19.50;99.90
22364;DHT22;11349;53.412;-1.328;2022-09-12T01:33:26;19.10;99.90
22364;DHT22;11349;53.412;-1.328;2022-09-12T01:38:51;19.30;99.90
22364;DHT22;11349;53.412;-1.328;2022-09-12T01:41:41;19.40;99.90
22364;DHT22;11349;53.412;-1.328;2022-09-12T01:47:15;19.30;99.90
22364;DHT22;11349;53.412;-1.328;2022-09-12T01:50:06;19.30;99.90
22364;DHT22;11349;53.412;-1.328;2022-09-12T02:01:19;19.40;99.90
22364;DHT22;11349;53.412;-1.328;2022-09-12T02:04:13;19.40;99.90
22364;DHT22;11349;53.412;-1.328;2022-09-12T02:07:00;19.40;99.90
22364;DHT22;11349;53.412;-1.328;2022-09-12T02:09:37;19.30;99.90
22364;DHT22;11349;53.412;-1.328;2022-09-12T02:12:05;19.20;99.90
22364;DHT22;11349;53.412;-1.328;2022-09-12T02:14:36;19.10;99.90
22364;DHT22;11349;53.412;-1.328;2022-09-12T02:17:15;19.10;99.90
22364;DHT22;11349;53.412;-1.328;2022-09-12T02:19:50;19.10;99.90
22364;DHT22;11349;53.412;-1.328;2022-09-12T02:22:19;19.10;99.90
22364;DHT22;11349;53.412;-1.328;2022-09-12T02:24:49;18.90;99.90
22364;DHT22;11349;53.412;-1.328;2022-09-12T02:27:19;19.00;99.90
22364;DHT22;11349;53.412;-1.328;2022-09-12T02:29:46;19.10;99.90
22364;DHT22;11349;53.412;-1.328;2022-09-12T02:32:37;18.90;99.90
22364;DHT22;11349;53.412;-1.328;2022-09-12T02:38:06;19.10;99.90
22364;DHT22;11349;53.412;-1.328;2022-09-12T02:40:35;19.00;99.90
22364;DHT22;11349;53.412;-1.328;2022-09-12T02:43:03;18.90;99.90
22364;DHT22;11349;53.412;-1.328;2022-09-12T02:45:30;18.60;99.90
22364;DHT22;11349;53.412;-1.328;2022-09-12T02:48:18;18.10;99.90
22364;DHT22;11349;53.412;-1.328;2022-09-12T02:50:45;18.40;99.90
22364;DHT22;11349;53.412;-1.328;2022-09-12T02:53:11;18.30;99.90
22364;DHT22;11349;53.412;-1.328;2022-09-12T02:55:39;18.50;99.90
22364;DHT22;11349;53.412;-1.328;2022-09-12T02:58:09;18.50;99.90
22364;DHT22;11349;53.412;-1.328;2022-09-12T03:00:56;18.30;99.90
22364;DHT22;11349;53.412;-1.328;2022-09-12T03:04:06;18.50;99.90
22364;DHT22;11349;53.412;-1.328;2022-09-12T03:09:19;18.50;99.90
22364;DHT22;11349;53.412;-1.328;2022-09-12T03:12:06;18.80;99.90
22364;DHT22;11349;53.412;-1.328;2022-09-12T03:22:32;18.90;99.90
22364;DHT22;11349;53.412;-1.328;2022-09-12T03:25:20;18.90;99.90
22364;DHT22;11349;53.412;-1.328;2022-09-12T03:28:03;18.90;99.90
22364;DHT22;11349;53.412;-1.328;2022-09-12T03:30:38;18.90;99.90
22364;DHT22;11349;53.412;-1.328;2022-09-12T03:33:05;18.80;99.90
22364;DHT22;11349;53.412;-1.328;2022-09-12T03:35:31;18.80;99.90
22364;DHT22;11349;53.412;-1.328;2022-09-12T03:37:56;18.90;99.90
22364;DHT22;11349;53.412;-1.328;2022-09-12T03:40:22;19.00;99.90
22364;DHT22;11349;53.412;-1.328;2022-09-12T03:42:48;19.00;99.90
22364;DHT22;11349;53.412;-1.328;2022-09-12T03:45:13;19.10;99.90
22364;DHT22;11349;53.412;-1.328;2022-09-12T03:47:41;19.10;99.90
22364;DHT22;11349;53.412;-1.328;2022-09-12T03:50:07;19.10;99.90
22364;DHT22;11349;53.412;-1.328;2022-09-12T03:52:33;19.00;99.90
22364;DHT22;11349;53.412;-1.328;2022-09-12T03:54:58;19.00;99.90
22364;DHT22;11349;53.412;-1.328;2022-09-12T03:57:24;19.00;99.90
22364;DHT22;11349;53.412;-1.328;2022-09-12T03:59:50;18.90;99.90
22364;DHT22;11349;53.412;-1.328;2022-09-12T04:02:16;18.80;99.90
22364;DHT22;11349;53.412;-1.328;2022-09-12T04:04:42;18.80;99.90
22364;DHT22;11349;53.412;-1.328;2022-09-12T04:07:11;18.80;99.90
22364;DHT22;11349;53.412;-1.328;2022-09-12T04:09:37;18.90;99.90
22364;DHT22;11349;53.412;-1.328;2022-09-12T04:12:03;18.70;99.90
22364;DHT22;11349;53.412;-1.328;2022-09-12T04:14:29;18.70;99.90
22364;DHT22;11349;53.412;-1.328;2022-09-12T04:16:54;18.80;99.90
22364;DHT22;11349;53.412;-1.328;2022-09-12T04:19:20;18.80;99.90
22364;DHT22;11349;53.412;-1.328;2022-09-12T04:21:46;18.60;99.90
22364;DHT22;11349;53.412;-1.328;2022-09-12T04:24:12;18.60;99.90
22364;DHT22;11349;53.412;-1.328;2022-09-12T04:26:37;18.60;99.90
22364;DHT22;11349;53.412;-1.328;2022-09-12T04:29:03;18.60;99.90
22364;DHT22;11349;53.412;-1.328;2022-09-12T04:31:29;18.20;99.90
22364;DHT22;11349;53.412;-1.328;2022-09-12T04:33:59;18.00;99.90
22364;DHT22;11349;53.412;-1.328;2022-09-12T04:36:27;17.70;99.90
22364;DHT22;11349;53.412;-1.328;2022-09-12T04:38:54;17.50;99.90
22364;DHT22;11349;53.412;-1.328;2022-09-12T04:41:29;17.20;99.90
22364;DHT22;11349;53.412;-1.328;2022-09-12T04:43:58;17.10;99.90
22364;DHT22;11349;53.412;-1.328;2022-09-12T04:46:26;16.90;99.90
22364;DHT22;11349;53.412;-1.328;2022-09-12T04:48:52;16.90;99.90
22364;DHT22;11349;53.412;-1.328;2022-09-12T04:51:21;17.00;99.90
22364;DHT22;11349;53.412;-1.328;2022-09-12T04:53:49;17.20;99.90
22364;DHT22;11349;53.412;-1.328;2022-09-12T04:56:15;17.50;99.90
22364;DHT22;11349;53.412;-1.328;2022-09-12T04:58:41;17.70;99.90
22364;DHT22;11349;53.412;-1.328;2022-09-12T05:01:18;17.80;99.90
22364;DHT22;11349;53.412;-1.328;2022-09-12T05:03:45;17.70;99.90
22364;DHT22;11349;53.412;-1.328;2022-09-12T05:08:42;17.50;99.90
22364;DHT22;11349;53.412;-1.328;2022-09-12T05:11:11;17.20;99.90
22364;DHT22;11349;53.412;-1.328;2022-09-12T05:13:37;17.00;99.90
22364;DHT22;11349;53.412;-1.328;2022-09-12T05:16:05;16.80;99.90
22364;DHT22;11349;53.412;-1.328;2022-09-12T05:18:32;16.70;99.90
22364;DHT22;11349;53.412;-1.328;2022-09-12T05:20:59;16.70;99.90
22364;DHT22;11349;53.412;-1.328;2022-09-12T05:23:26;16.70;99.90
22364;DHT22;11349;53.412;-1.328;2022-09-12T05:25:53;16.70;99.90
22364;DHT22;11349;53.412;-1.328;2022-09-12T05:28:21;16.80;99.90
22364;DHT22;11349;53.412;-1.328;2022-09-12T05:30:47;17.00;99.90
22364;DHT22;11349;53.412;-1.328;2022-09-12T05:33:13;17.30;99.90
22364;DHT22;11349;53.412;-1.328;2022-09-12T05:35:39;17.20;99.90
22364;DHT22;11349;53.412;-1.328;2022-09-12T05:38:06;17.20;99.90
22364;DHT22;11349;53.412;-1.328;2022-09-12T05:40:32;17.20;99.90
22364;DHT22;11349;53.412;-1.328;2022-09-12T05:42:59;17.00;99.90
22364;DHT22;11349;53.412;-1.328;2022-09-12T05:45:24;16.80;99.90
22364;DHT22;11349;53.412;-1.328;2022-09-12T05:47:55;16.80;99.90
22364;DHT22;11349;53.412;-1.328;2022-09-12T05:50:20;16.70;99.90
22364;DHT22;11349;53.412;-1.328;2022-09-12T05:52:46;16.80;99.90
22364;DHT22;11349;53.412;-1.328;2022-09-12T05:55:12;17.00;99.90
22364;DHT22;11349;53.412;-1.328;2022-09-12T05:57:37;16.90;99.90
22364;DHT22;11349;53.412;-1.328;2022-09-12T06:00:04;16.80;99.90
22364;DHT22;11349;53.412;-1.328;2022-09-12T06:02:30;16.80;99.90
22364;DHT22;11349;53.412;-1.328;2022-09-12T06:04:56;16.80;99.90
22364;DHT22;11349;53.412;-1.328;2022-09-12T06:07:22;16.80;99.90
22364;DHT22;11349;53.412;-1.328;2022-09-12T06:09:47;16.70;99.90
22364;DHT22;11349;53.412;-1.328;2022-09-12T06:12:16;16.60;99.90
22364;DHT22;11349;53.412;-1.328;2022-09-12T06:14:42;16.60;99.90
22364;DHT22;11349;53.412;-1.328;2022-09-12T06:17:07;16.50;99.90
22364;DHT22;11349;53.412;-1.328;2022-09-12T06:19:33;16.40;99.90
22364;DHT22;11349;53.412;-1.328;2022-09-12T06:21:59;16.30;99.90
22364;DHT22;11349;53.412;-1.328;2022-09-12T06:24:28;16.30;99.90
22364;DHT22;11349;53.412;-1.328;2022-09-12T06:26:54;16.30;99.90
22364;DHT22;11349;53.412;-1.328;2022-09-12T06:29:20;16.30;99.90
22364;DHT22;11349;53.412;-1.328;2022-09-12T06:31:46;16.30;99.90
22364;DHT22;11349;53.412;-1.328;2022-09-12T06:34:14;16.40;99.90
22364;DHT22;11349;53.412;-1.328;2022-09-12T06:36:42;16.20;99.90
22364;DHT22;11349;53.412;-1.328;2022-09-12T06:39:16;16.20;99.90
22364;DHT22;11349;53.412;-1.328;2022-09-12T06:41:43;16.10;99.90
22364;DHT22;11349;53.412;-1.328;2022-09-12T06:44:12;16.10;99.90
22364;DHT22;11349;53.412;-1.328;2022-09-12T06:46:41;16.10;99.90
22364;DHT22;11349;53.412;-1.328;2022-09-12T06:49:07;16.10;99.90
22364;DHT22;11349;53.412;-1.328;2022-09-12T06:51:33;16.10;99.90
22364;DHT22;11349;53.412;-1.328;2022-09-12T06:54:00;16.10;99.90
22364;DHT22;11349;53.412;-1.328;2022-09-12T06:56:27;16.10;99.90
22364;DHT22;11349;53.412;-1.328;2022-09-12T06:58:55;16.20;99.90
22364;DHT22;11349;53.412;-1.328;2022-09-12T07:01:23;16.30;99.90
22364;DHT22;11349;53.412;-1.328;2022-09-12T07:03:54;16.40;99.90
22364;DHT22;11349;53.412;-1.328;2022-09-12T07:06:22;16.40;99.90
22364;DHT22;11349;53.412;-1.328;2022-09-12T07:08:49;16.40;99.90
22364;DHT22;11349;53.412;-1.328;2022-09-12T07:11:19;16.50;99.90
22364;DHT22;11349;53.412;-1.328;2022-09-12T07:13:47;16.60;99.90
22364;DHT22;11349;53.412;-1.328;2022-09-12T07:16:13;16.80;99.90
22364;DHT22;11349;53.412;-1.328;2022-09-12T07:18:39;16.90;99.90
22364;DHT22;11349;53.412;-1.328;2022-09-12T07:21:09;17.10;99.90
22364;DHT22;11349;53.412;-1.328;2022-09-12T07:23:35;17.10;99.90
22364;DHT22;11349;53.412;-1.328;2022-09-12T07:26:03;17.10;99.90
22364;DHT22;11349;53.412;-1.328;2022-09-12T07:28:31;17.10;99.90
22364;DHT22;11349;53.412;-1.328;2022-09-12T07:30:57;17.20;99.90
22364;DHT22;11349;53.412;-1.328;2022-09-12T07:33:26;17.30;99.90
22364;DHT22;11349;53.412;-1.328;2022-09-12T07:35:52;17.20;99.90
22364;DHT22;11349;53.412;-1.328;2022-09-12T07:38:21;17.30;99.90
22364;DHT22;11349;53.412;-1.328;2022-09-12T07:40:47;17.20;99.90
22364;DHT22;11349;53.412;-1.328;2022-09-12T07:43:13;17.10;99.90
22364;DHT22;11349;53.412;-1.328;2022-09-12T07:45:38;17.20;99.90
22364;DHT22;11349;53.412;-1.328;2022-09-12T07:48:07;17.10;99.90
22364;DHT22;11349;53.412;-1.328;2022-09-12T07:50:33;17.10;99.90
22364;DHT22;11349;53.412;-1.328;2022-09-12T07:53:00;17.10;99.90
22364;DHT22;11349;53.412;-1.328;2022-09-12T07:55:28;17.00;99.90
22364;DHT22;11349;53.412;-1.328;2022-09-12T07:57:54;16.90;99.90
22364;DHT22;11349;53.412;-1.328;2022-09-12T08:00:20;16.90;99.90
22364;DHT22;11349;53.412;-1.328;2022-09-12T08:02:50;16.80;99.90
22364;DHT22;11349;53.412;-1.328;2022-09-12T08:05:17;16.80;99.90
22364;DHT22;11349;53.412;-1.328;2022-09-12T08:07:43;16.90;99.90
22364;DHT22;11349;53.412;-1.328;2022-09-12T08:10:09;16.90;99.90
22364;DHT22;11349;53.412;-1.328;2022-09-12T08:12:35;17.00;99.90
22364;DHT22;11349;53.412;-1.328;2022-09-12T08:15:01;17.10;99.90
22364;DHT22;11349;53.412;-1.328;2022-09-12T08:17:27;17.10;99.90
22364;DHT22;11349;53.412;-1.328;2022-09-12T08:19:54;17.20;99.90
22364;DHT22;11349;53.412;-1.328;2022-09-12T08:22:21;17.20;99.90
22364;DHT22;11349;53.412;-1.328;2022-09-12T08:24:48;17.40;99.90
22364;DHT22;11349;53.412;-1.328;2022-09-12T08:27:14;17.50;99.90
22364;DHT22;11349;53.412;-1.328;2022-09-12T08:29:40;17.80;99.90
22364;DHT22;11349;53.412;-1.328;2022-09-12T08:32:06;18.00;99.90
22364;DHT22;11349;53.412;-1.328;2022-09-12T08:34:32;18.10;99.90
22364;DHT22;11349;53.412;-1.328;2022-09-12T08:36:58;18.10;99.90
22364;DHT22;11349;53.412;-1.328;2022-09-12T08:39:24;18.10;99.90
22364;DHT22;11349;53.412;-1.328;2022-09-12T08:42:01;18.20;99.90
22364;DHT22;11349;53.412;-1.328;2022-09-12T08:44:48;18.30;99.90
22364;DHT22;11349;53.412;-1.328;2022-09-12T08:47:27;18.40;99.90
22364;DHT22;11349;53.412;-1.328;2022-09-12T08:52:55;18.50;99.90
22364;DHT22;11349;53.412;-1.328;2022-09-12T08:55:33;18.50;99.90
22364;DHT22;11349;53.412;-1.328;2022-09-12T08:58:19;18.60;99.90
22364;DHT22;11349;53.412;-1.328;2022-09-12T09:08:56;18.80;99.90
22364;DHT22;11349;53.412;-1.328;2022-09-12T09:16:59;18.90;99.90
22364;DHT22;11349;53.412;-1.328;2022-09-12T09:19:35;19.00;99.90
22364;DHT22;11349;53.412;-1.328;2022-09-12T09:22:08;19.00;99.90
22364;DHT22;11349;53.412;-1.328;2022-09-12T09:24:41;19.00;99.90
22364;DHT22;11349;53.412;-1.328;2022-09-12T09:27:31;19.10;99.90
22364;DHT22;11349;53.412;-1.328;2022-09-12T09:30:00;19.10;99.90
22364;DHT22;11349;53.412;-1.328;2022-09-12T09:32:33;19.20;99.90
22364;DHT22;11349;53.412;-1.328;2022-09-12T09:35:11;19.30;99.90
22364;DHT22;11349;53.412;-1.328;2022-09-12T09:40:51;19.40;99.90
22364;DHT22;11349;53.412;-1.328;2022-09-12T09:43:23;19.50;99.90
22364;DHT22;11349;53.412;-1.328;2022-09-12T09:45:52;19.50;99.90
22364;DHT22;11349;53.412;-1.328;2022-09-12T09:50:49;19.70;99.90
22364;DHT22;11349;53.412;-1.328;2022-09-12T09:53:46;19.70;99.90
22364;DHT22;11349;53.412;-1.328;2022-09-12T09:58:53;19.80;99.90
22364;DHT22;11349;53.412;-1.328;2022-09-12T10:01:19;19.80;99.90
22364;DHT22;11349;53.412;-1.328;2022-09-12T10:03:53;19.90;99.90
22364;DHT22;11349;53.412;-1.328;2022-09-12T10:08:46;19.90;99.90
22364;DHT22;11349;53.412;-1.328;2022-09-12T10:13:55;20.00;99.90
22364;DHT22;11349;53.412;-1.328;2022-09-12T10:16:30;20.10;99.90
22364;DHT22;11349;53.412;-1.328;2022-09-12T10:18:59;20.10;99.90
22364;DHT22;11349;53.412;-1.328;2022-09-12T10:21:49;20.10;99.90
22364;DHT22;11349;53.412;-1.328;2022-09-12T10:24:34;20.30;99.90
22364;DHT22;11349;53.412;-1.328;2022-09-12T10:30:13;20.30;99.90
22364;DHT22;11349;53.412;-1.328;2022-09-12T10:32:44;20.20;99.90
22364;DHT22;11349;53.412;-1.328;2022-09-12T10:37:57;20.50;99.90
22364;DHT22;11349;53.412;-1.328;2022-09-12T10:40:54;20.60;99.90
22364;DHT22;11349;53.412;-1.328;2022-09-12T10:43:39;20.50;99.90
22364;DHT22;11349;53.412;-1.328;2022-09-12T10:49:11;20.60;99.90
22364;DHT22;11349;53.412;-1.328;2022-09-12T10:51:37;20.50;99.90
22364;DHT22;11349;53.412;-1.328;2022-09-12T10:54:07;20.60;99.90
22364;DHT22;11349;53.412;-1.328;2022-09-12T10:57:04;20.60;99.90
22364;DHT22;11349;53.412;-1.328;2022-09-12T11:00:18;20.60;99.90
22364;DHT22;11349;53.412;-1.328;2022-09-12T11:02:49;20.80;99.90
22364;DHT22;11349;53.412;-1.328;2022-09-12T11:08:08;20.80;99.90
22364;DHT22;11349;53.412;-1.328;2022-09-12T11:24:55;21.00;99.90
22364;DHT22;11349;53.412;-1.328;2022-09-12T11:27:50;21.00;99.90
22364;DHT22;11349;53.412;-1.328;2022-09-12T11:30:22;21.10;99.90
22364;DHT22;11349;53.412;-1.328;2022-09-12T11:35:30;21.20;99.90
22364;DHT22;11349;53.412;-1.328;2022-09-12T11:41:02;21.10;99.90
22364;DHT22;11349;53.412;-1.328;2022-09-12T11:44:11;21.20;99.90
22364;DHT22;11349;53.412;-1.328;2022-09-12T11:46:42;21.30;99.90
22364;DHT22;11349;53.412;-1.328;2022-09-12T11:56:37;21.30;99.90
22364;DHT22;11349;53.412;-1.328;2022-09-12T12:01:55;21.40;99.90
22364;DHT22;11349;53.412;-1.328;2022-09-12T12:04:42;21.50;99.90
22364;DHT22;11349;53.412;-1.328;2022-09-12T12:07:14;21.40;99.90
22364;DHT22;11349;53.412;-1.328;2022-09-12T12:09:49;21.30;99.90
22364;DHT22;11349;53.412;-1.328;2022-09-12T12:12:20;21.40;99.90
22364;DHT22;11349;53.412;-1.328;2022-09-12T12:14:49;21.30;99.90
22364;DHT22;11349;53.412;-1.328;2022-09-12T12:17:19;21.40;99.90
22364;DHT22;11349;53.412;-1.328;2022-09-12T12:19:46;21.40;99.90
22364;DHT22;11349;53.412;-1.328;2022-09-12T12:22:22;21.40;99.90
22364;DHT22;11349;53.412;-1.328;2022-09-12T12:27:53;21.40;99.90
22364;DHT22;11349;53.412;-1.328;2022-09-12T12:38:37;21.40;99.90
22364;DHT22;11349;53.412;-1.328;2022-09-12T12:43:45;21.40;99.90
22364;DHT22;11349;53.412;-1.328;2022-09-12T12:46:22;21.50;99.90
22364;DHT22;11349;53.412;-1.328;2022-09-12T12:48:51;21.40;99.90
22364;DHT22;11349;53.412;-1.328;2022-09-12T12:54:51;21.40;99.90
22364;DHT22;11349;53.412;-1.328;2022-09-12T12:59:51;21.40;99.90
22364;DHT22;11349;53.412;-1.328;2022-09-12T13:02:22;21.40;99.90
22364;DHT22;11349;53.412;-1.328;2022-09-12T13:04:49;21.40;99.90
22364;DHT22;11349;53.412;-1.328;2022-09-12T13:07:36;21.40;99.90
22364;DHT22;11349;53.412;-1.328;2022-09-12T13:10:04;21.40;99.90
22364;DHT22;11349;53.412;-1.328;2022-09-12T13:12:41;21.50;99.90
22364;DHT22;11349;53.412;-1.328;2022-09-12T13:15:40;21.50;99.90
22364;DHT22;11349;53.412;-1.328;2022-09-12T13:18:54;21.40;99.90
22364;DHT22;11349;53.412;-1.328;2022-09-12T13:21:18;21.40;99.90
22364;DHT22;11349;53.412;-1.328;2022-09-12T13:23:57;21.50;99.90
22364;DHT22;11349;53.412;-1.328;2022-09-12T13:26:25;21.50;99.90
22364;DHT22;11349;53.412;-1.328;2022-09-12T13:29:15;21.50;99.90
22364;DHT22;11349;53.412;-1.328;2022-09-12T13:31:43;21.50;99.90
22364;DHT22;11349;53.412;-1.328;2022-09-12T13:34:17;21.50;99.90
22364;DHT22;11349;53.412;-1.328;2022-09-12T13:39:28;21.50;99.90
22364;DHT22;11349;53.412;-1.328;2022-09-12T13:44:51;21.50;99.90
22364;DHT22;11349;53.412;-1.328;2022-09-12T13:47:29;21.50;99.90
22364;DHT22;11349;53.412;-1.328;2022-09-12T13:49:56;21.50;99.90
22364;DHT22;11349;53.412;-1.328;2022-09-12T13:52:29;21.50;99.90
22364;DHT22;11349;53.412;-1.328;2022-09-12T13:54:58;21.40;99.90
22364;DHT22;11349;53.412;-1.328;2022-09-12T13:57:36;21.40;99.90
22364;DHT22;11349;53.412;-1.328;2022-09-12T14:00:16;21.40;99.90
22364;DHT22;11349;53.412;-1.328;2022-09-12T14:02:45;21.40;99.90
22364;DHT22;11349;53.412;-1.328;2022-09-12T14:05:23;21.40;99.90
22364;DHT22;11349;53.412;-1.328;2022-09-12T14:07:56;21.40;99.90
22364;DHT22;11349;53.412;-1.328;2022-09-12T14:10:30;21.40;99.90
22364;DHT22;11349;53.412;-1.328;2022-09-12T14:13:00;21.40;99.90
22364;DHT22;11349;53.412;-1.328;2022-09-12T14:15:29;21.40;99.90
22364;DHT22;11349;53.412;-1.328;2022-09-12T14:17:58;21.50;99.90
22364;DHT22;11349;53.412;-1.328;2022-09-12T14:20:29;21.50;99.90
22364;DHT22;11349;53.412;-1.328;2022-09-12T14:23:05;21.50;99.90
22364;DHT22;11349;53.412;-1.328;2022-09-12T14:25:36;21.50;99.90
22364;DHT22;11349;53.412;-1.328;2022-09-12T14:28:09;21.50;99.90
22364;DHT22;11349;53.412;-1.328;2022-09-12T14:30:37;21.60;99.90
22364;DHT22;11349;53.412;-1.328;2022-09-12T14:41:01;21.50;99.90
22364;DHT22;11349;53.412;-1.328;2022-09-12T14:43:36;21.50;99.90
22364;DHT22;11349;53.412;-1.328;2022-09-12T14:46:32;21.50;99.90
22364;DHT22;11349;53.412;-1.328;2022-09-12T14:49:04;21.50;99.90
22364;DHT22;11349;53.412;-1.328;2022-09-12T14:51:37;21.50;99.90
22364;DHT22;11349;53.412;-1.328;2022-09-12T14:54:03;21.50;99.90
22364;DHT22;11349;53.412;-1.328;2022-09-12T14:56:43;21.50;99.90
22364;DHT22;11349;53.412;-1.328;2022-09-12T14:59:39;21.50;99.90
22364;DHT22;11349;53.412;-1.328;2022-09-12T15:02:22;21.50;99.90
22364;DHT22;11349;53.412;-1.328;2022-09-12T15:04:50;21.50;99.90
22364;DHT22;11349;53.412;-1.328;2022-09-12T15:09:55;21.60;99.90
22364;DHT22;11349;53.412;-1.328;2022-09-12T15:12:22;21.50;99.90
22364;DHT22;11349;53.412;-1.328;2022-09-12T15:14:48;21.50;99.90
22364;DHT22;11349;53.412;-1.328;2022-09-12T15:17:14;21.50;99.90
22364;DHT22;11349;53.412;-1.328;2022-09-12T15:19:39;21.50;99.90
22364;DHT22;11349;53.412;-1.328;2022-09-12T15:22:05;21.50;99.90
22364;DHT22;11349;53.412;-1.328;2022-09-12T15:24:31;21.50;99.90
22364;DHT22;11349;53.412;-1.328;2022-09-12T15:27:00;21.50;99.90
22364;DHT22;11349;53.412;-1.328;2022-09-12T15:29:26;21.40;99.90
22364;DHT22;11349;53.412;-1.328;2022-09-12T15:31:52;21.40;99.90
22364;DHT22;11349;53.412;-1.328;2022-09-12T15:34:18;21.40;99.90
22364;DHT22;11349;53.412;-1.328;2022-09-12T15:36:44;21.50;99.90
22364;DHT22;11349;53.412;-1.328;2022-09-12T15:39:10;21.40;99.90
22364;DHT22;11349;53.412;-1.328;2022-09-12T15:41:37;21.40;99.90
22364;DHT22;11349;53.412;-1.328;2022-09-12T15:44:10;21.50;99.90
22364;DHT22;11349;53.412;-1.328;2022-09-12T15:46:37;21.40;99.90
22364;DHT22;11349;53.412;-1.328;2022-09-12T15:49:02;21.30;99.90
22364;DHT22;11349;53.412;-1.328;2022-09-12T15:51:28;21.30;99.90
22364;DHT22;11349;53.412;-1.328;2022-09-12T15:53:54;21.30;99.90
22364;DHT22;11349;53.412;-1.328;2022-09-12T15:56:21;21.30;99.90
22364;DHT22;11349;53.412;-1.328;2022-09-12T15:58:47;21.30;99.90
22364;DHT22;11349;53.412;-1.328;2022-09-12T16:01:15;21.30;99.90
22364;DHT22;11349;53.412;-1.328;2022-09-12T16:03:42;21.30;99.90
22364;DHT22;11349;53.412;-1.328;2022-09-12T16:06:10;21.30;99.90
22364;DHT22;11349;53.412;-1.328;2022-09-12T16:08:36;21.30;99.90
22364;DHT22;11349;53.412;-1.328;2022-09-12T16:11:06;21.30;99.90
22364;DHT22;11349;53.412;-1.328;2022-09-12T16:13:33;21.20;99.90
22364;DHT22;11349;53.412;-1.328;2022-09-12T16:15:59;21.20;99.90
22364;DHT22;11349;53.412;-1.328;2022-09-12T16:18:26;21.20;99.90
22364;DHT22;11349;53.412;-1.328;2022-09-12T16:20:54;21.30;99.90
22364;DHT22;11349;53.412;-1.328;2022-09-12T16:23:20;21.20;99.90
22364;DHT22;11349;53.412;-1.328;2022-09-12T16:25:56;21.30;99.90
22364;DHT22;11349;53.412;-1.328;2022-09-12T16:28:22;21.20;99.90
22364;DHT22;11349;53.412;-1.328;2022-09-12T16:30:55;21.30;99.90
22364;DHT22;11349;53.412;-1.328;2022-09-12T16:33:21;21.30;99.90
22364;DHT22;11349;53.412;-1.328;2022-09-12T16:35:47;21.30;99.90
22364;DHT22;11349;53.412;-1.328;2022-09-12T16:38:13;21.20;99.90
22364;DHT22;11349;53.412;-1.328;2022-09-12T16:40:39;21.10;99.90
22364;DHT22;11349;53.412;-1.328;2022-09-12T16:43:05;21.10;99.90
22364;DHT22;11349;53.412;-1.328;2022-09-12T16:45:31;21.20;99.90
22364;DHT22;11349;53.412;-1.328;2022-09-12T16:47:57;21.20;99.90
22364;DHT22;11349;53.412;-1.328;2022-09-12T16:50:23;21.20;99.90
22364;DHT22;11349;53.412;-1.328;2022-09-12T16:52:49;21.20;99.90
22364;DHT22;11349;53.412;-1.328;2022-09-12T16:55:15;21.20;99.90
22364;DHT22;11349;53.412;-1.328;2022-09-12T16:57:41;21.20;99.90
22364;DHT22;11349;53.412;-1.328;2022-09-12T17:00:07;21.20;99.90
22364;DHT22;11349;53.412;-1.328;2022-09-12T17:02:33;21.20;99.90
22364;DHT22;11349;53.412;-1.328;2022-09-12T17:04:59;21.20;99.90
22364;DHT22;11349;53.412;-1.328;2022-09-12T17:07:25;21.20;99.90
22364;DHT22;11349;53.412;-1.328;2022-09-12T17:09:51;21.20;99.90
22364;DHT22;11349;53.412;-1.328;2022-09-12T17:12:17;21.20;99.90
22364;DHT22;11349;53.412;-1.328;2022-09-12T17:14:43;21.10;99.90
22364;DHT22;11349;53.412;-1.328;2022-09-12T17:17:09;21.00;99.90
22364;DHT22;11349;53.412;-1.328;2022-09-12T17:19:35;21.00;99.90
22364;DHT22;11349;53.412;-1.328;2022-09-12T17:22:01;21.00;99.90
22364;DHT22;11349;53.412;-1.328;2022-09-12T17:24:27;21.00;99.90
22364;DHT22;11349;53.412;-1.328;2022-09-12T17:26:53;21.00;99.90
22364;DHT22;11349;53.412;-1.328;2022-09-12T17:29:20;21.00;99.90
22364;DHT22;11349;53.412;-1.328;2022-09-12T17:31:46;20.90;99.90
22364;DHT22;11349;53.412;-1.328;2022-09-12T17:34:13;20.90;99.90
22364;DHT22;11349;53.412;-1.328;2022-09-12T17:36:39;20.80;99.90
22364;DHT22;11349;53.412;-1.328;2022-09-12T17:39:09;20.70;99.90
22364;DHT22;11349;53.412;-1.328;2022-09-12T17:41:36;20.70;99.90
22364;DHT22;11349;53.412;-1.328;2022-09-12T17:44:02;20.60;99.90
22364;DHT22;11349;53.412;-1.328;2022-09-12T17:46:34;20.40;99.90
22364;DHT22;11349;53.412;-1.328;2022-09-12T17:49:03;20.40;99.90
22364;DHT22;11349;53.412;-1.328;2022-09-12T17:51:29;20.30;99.90
22364;DHT22;11349;53.412;-1.328;2022-09-12T17:53:57;20.30;99.90
22364;DHT22;11349;53.412;-1.328;2022-09-12T17:56:24;20.20;99.90
22364;DHT22;11349;53.412;-1.328;2022-09-12T17:58:53;20.10;99.90
22364;DHT22;11349;53.412;-1.328;2022-09-12T18:01:19;20.10;99.90
22364;DHT22;11349;53.412;-1.328;2022-09-12T18:04:04;20.10;99.90
22364;DHT22;11349;53.412;-1.328;2022-09-12T18:06:31;20.00;99.90